createdAt,value
2022-09-28T00:03:45.775Z,0.77
2022-09-28T00:08:50.819Z,0.70
2022-09-28T00:13:56.616Z,0.70
2022-09-28T00:18:59.870Z,1.52
2022-09-28T00:24:15.969Z,2.20
2022-09-28T00:29:22.803Z,0.68
2022-09-28T00:34:25.793Z,2.10
2022-09-28T00:39:31.674Z,0.70
2022-09-28T00:44:52.676Z,1.15
2022-09-28T00:50:00.687Z,1.25
2022-09-28T00:55:08.843Z,0.60
2022-09-28T01:00:13.475Z,0.47
2022-09-28T01:05:17.921Z,1.15
2022-09-28T01:10:23.775Z,1.02
2022-09-28T01:15:29.342Z,1.27
2022-09-28T01:20:52.532Z,0.77
2022-09-28T01:26:04.461Z,0.90
2022-09-28T01:31:12.497Z,0.52
2022-09-28T01:36:20.206Z,0.85
2022-09-28T01:41:26.130Z,0.80
2022-09-28T01:46:35.644Z,1.05
2022-09-28T01:51:48.778Z,0.90
2022-09-28T01:56:55.392Z,0.70
2022-09-28T02:02:02.749Z,1.00
2022-09-28T02:07:10.334Z,0.85
2022-09-28T02:12:20.284Z,0.82
2022-09-28T02:17:24.724Z,0.60
2022-09-28T02:22:33.581Z,0.47
2022-09-28T02:27:40.991Z,0.40
2022-09-28T02:32:49.192Z,0.60
2022-09-28T02:37:52.276Z,0.60
2022-09-28T02:43:03.143Z,0.43
2022-09-28T02:48:42.663Z,0.45
2022-09-28T02:54:18.877Z,1.45
2022-09-28T02:59:40.223Z,0.60
2022-09-28T03:04:54.099Z,1.05
2022-09-28T03:10:03.780Z,0.77
2022-09-28T03:15:08.777Z,0.50
2022-09-28T03:20:13.399Z,0.52
2022-09-28T03:25:16.562Z,0.95
2022-09-28T03:30:19.863Z,0.63
2022-09-28T03:35:24.175Z,0.63
2022-09-28T03:40:27.346Z,0.40
2022-09-28T03:45:30.446Z,0.50
2022-09-28T03:50:34.851Z,0.50
2022-09-28T03:55:38.364Z,1.20
2022-09-28T04:00:41.530Z,0.45
2022-09-28T04:05:51.419Z,0.30
2022-09-28T04:10:57.966Z,0.40
2022-09-28T04:16:02.442Z,0.40
2022-09-28T04:21:08.923Z,0.40
2022-09-28T04:26:17.427Z,0.73
2022-09-28T04:31:22.568Z,1.08
2022-09-28T04:36:26.978Z,1.00
2022-09-28T04:41:29.944Z,0.70
2022-09-28T04:46:33.164Z,0.52
2022-09-28T04:51:37.644Z,1.48
2022-09-28T04:56:41.192Z,0.50
2022-09-28T05:01:44.646Z,3.38
2022-09-28T05:06:49.007Z,1.20
2022-09-28T05:11:53.133Z,0.50
2022-09-28T05:16:56.260Z,0.90
2022-09-28T05:22:04.083Z,1.98
2022-09-28T05:27:07.135Z,0.77
2022-09-28T05:32:10.145Z,1.08
2022-09-28T05:37:14.613Z,1.10
2022-09-28T05:42:17.693Z,1.52
2022-09-28T05:47:20.745Z,0.65
2022-09-28T05:52:25.222Z,0.47
2022-09-28T05:57:28.249Z,1.27
2022-09-28T06:02:31.738Z,0.45
2022-09-28T06:07:36.186Z,0.50
2022-09-28T06:12:39.158Z,1.77
2022-09-28T06:17:43.748Z,1.10
2022-09-28T06:22:52.212Z,2.10
2022-09-28T06:27:56.564Z,2.60
2022-09-28T06:33:01.283Z,2.95
2022-09-28T06:38:06.121Z,1.17
2022-09-28T06:43:12.057Z,2.10
2022-09-28T06:48:15.025Z,2.38
2022-09-28T06:53:19.680Z,3.13
2022-09-28T06:58:23.423Z,2.75
2022-09-28T07:03:26.814Z,4.07
2022-09-28T07:08:31.171Z,1.42
2022-09-28T07:13:49.825Z,3.05
2022-09-28T07:18:53.666Z,4.90
2022-09-28T07:23:58.151Z,1.25
2022-09-28T07:29:01.138Z,3.15
2022-09-28T07:34:04.996Z,2.45
2022-09-28T07:39:09.375Z,2.85
2022-09-28T07:44:12.325Z,3.85
2022-09-28T07:49:16.684Z,3.15
2022-09-28T07:54:21.096Z,1.85
2022-09-28T07:59:25.103Z,3.05
2022-09-28T08:04:30.115Z,2.33
2022-09-28T08:09:34.655Z,2.83
2022-09-28T08:14:37.820Z,3.30
2022-09-28T08:19:57.978Z,3.70
2022-09-28T08:25:02.314Z,4.50
2022-09-28T08:30:06.139Z,4.30
2022-09-28T08:35:09.555Z,2.60
2022-09-28T08:40:19.959Z,4.05
2022-09-28T08:45:27.139Z,2.13
2022-09-28T08:50:32.883Z,2.80
2022-09-28T08:55:39.898Z,4.05
2022-09-28T09:00:47.517Z,3.67
2022-09-28T09:06:02.013Z,5.70
2022-09-28T09:11:15.518Z,4.28
2022-09-28T09:16:28.426Z,2.72
2022-09-28T09:21:41.755Z,2.33
2022-09-28T09:26:47.285Z,3.95
2022-09-28T09:32:07.953Z,4.57
2022-09-28T09:37:25.580Z,3.67
2022-09-28T09:42:45.276Z,3.00
2022-09-28T09:47:53.549Z,5.05
2022-09-28T09:53:01.659Z,5.57
2022-09-28T09:58:10.507Z,2.20
2022-09-28T10:03:22.076Z,2.20
2022-09-28T10:08:28.063Z,3.92
2022-09-28T10:13:32.897Z,1.60
2022-09-28T10:18:37.322Z,4.45
2022-09-28T10:23:41.935Z,1.77
2022-09-28T10:28:51.320Z,2.72
2022-09-28T10:33:54.621Z,2.38
2022-09-28T10:38:57.903Z,1.95
2022-09-28T10:44:08.725Z,2.70
2022-09-28T10:49:17.839Z,2.22
2022-09-28T10:54:22.794Z,3.03
2022-09-28T10:59:38.123Z,3.28
2022-09-28T11:04:43.595Z,1.67
2022-09-28T11:09:50.136Z,1.55
2022-09-28T11:15:00.890Z,1.90
2022-09-28T11:20:30.266Z,1.13
2022-09-28T11:25:33.332Z,3.35
2022-09-28T11:30:45.610Z,1.70
2022-09-28T11:35:53.302Z,1.65
2022-09-28T11:41:18.442Z,1.63
2022-09-28T11:46:32.102Z,1.52
2022-09-28T11:51:38.728Z,2.15
2022-09-28T11:56:44.959Z,1.02
2022-09-28T12:01:54.442Z,1.13
2022-09-28T12:07:01.070Z,1.63
2022-09-28T12:12:07.636Z,0.60
2022-09-28T12:17:20.363Z,1.83
2022-09-28T12:22:27.839Z,2.97
2022-09-28T12:27:38.435Z,0.80
2022-09-28T12:32:47.535Z,1.25
2022-09-28T12:38:20.286Z,2.42
2022-09-28T12:43:54.617Z,1.10
2022-09-28T12:50:20.047Z,0.70
2022-09-28T12:54:57.926Z,1.40
2022-09-28T13:00:06.106Z,0.50
2022-09-28T13:05:23.007Z,0.85
2022-09-28T13:10:32.651Z,1.48
2022-09-28T13:15:44.517Z,0.60
2022-09-28T13:21:11.772Z,0.50
2022-09-28T13:26:25.539Z,1.38
2022-09-28T13:31:32.479Z,1.67
2022-09-28T13:36:43.451Z,1.85
2022-09-28T13:41:50.639Z,0.82
2022-09-28T13:47:10.349Z,1.13
2022-09-28T13:52:37.027Z,0.70
2022-09-28T13:57:46.298Z,2.40
2022-09-28T14:02:54.644Z,0.85
2022-09-28T14:08:17.894Z,1.10
2022-09-28T14:13:58.314Z,1.20
2022-09-28T14:19:07.011Z,1.20
2022-09-28T14:24:22.883Z,0.73
2022-09-28T14:29:29.517Z,0.65
2022-09-28T14:34:36.669Z,1.10
2022-09-28T14:40:03.369Z,0.65
2022-09-28T14:45:34.698Z,1.17
2022-09-28T14:50:37.636Z,0.80
2022-09-28T14:55:51.174Z,0.77
2022-09-28T15:01:03.783Z,0.80
2022-09-28T15:06:07.017Z,0.85
2022-09-28T15:11:16.661Z,0.90
2022-09-28T15:16:24.708Z,1.55
2022-09-28T15:21:36.939Z,1.00
2022-09-28T15:26:41.254Z,8.82
2022-09-28T15:31:44.774Z,20.77
2022-09-28T15:36:48.492Z,25.92
2022-09-28T15:41:53.232Z,18.67
2022-09-28T15:47:10.542Z,69.00
2022-09-28T15:52:27.779Z,36.83
2022-09-28T15:57:36.742Z,25.75
2022-09-28T16:02:39.790Z,23.95
2022-09-28T16:07:56.009Z,18.75
2022-09-28T16:13:14.290Z,11.82
2022-09-28T16:18:22.139Z,13.30
2022-09-28T16:23:28.319Z,10.18
2022-09-28T16:29:00.091Z,10.93
2022-09-28T16:34:17.665Z,8.85
2022-09-28T16:39:20.931Z,9.25
2022-09-28T16:44:28.454Z,12.35
2022-09-28T16:49:32.214Z,11.38
2022-09-28T16:54:52.783Z,11.55
2022-09-28T16:59:57.105Z,8.82
2022-09-28T17:05:00.048Z,10.13
2022-09-28T17:10:03.179Z,11.80
2022-09-28T17:15:08.576Z,15.30
2022-09-28T17:20:20.330Z,7.47
2022-09-28T17:25:25.115Z,8.40
2022-09-28T17:30:30.031Z,6.78
2022-09-28T17:35:36.191Z,9.45
2022-09-28T17:40:42.792Z,10.32
2022-09-28T17:45:48.376Z,10.60
2022-09-28T17:50:51.763Z,10.05
2022-09-28T17:55:54.771Z,15.48
2022-09-28T18:00:59.107Z,4.97
2022-09-28T18:06:06.471Z,8.40
2022-09-28T18:11:09.678Z,5.85
2022-09-28T18:16:15.165Z,5.85
2022-09-28T18:21:18.141Z,7.20
2022-09-28T18:26:21.192Z,5.57
2022-09-28T18:31:25.776Z,5.35
2022-09-28T18:36:33.169Z,5.32
2022-09-28T18:41:36.214Z,6.47
2022-09-28T18:46:42.923Z,7.40
2022-09-28T18:51:45.934Z,4.47
2022-09-28T18:56:50.314Z,4.43
2022-09-28T19:01:54.723Z,10.38
2022-09-28T19:06:57.851Z,5.22
2022-09-28T19:12:00.880Z,8.23
2022-09-28T19:17:05.435Z,9.38
2022-09-28T19:22:08.434Z,6.22
2022-09-28T19:27:11.392Z,6.22
2022-09-28T19:32:15.753Z,5.88
2022-09-28T19:37:18.939Z,6.30
2022-09-28T19:42:21.896Z,6.03
2022-09-28T19:47:26.620Z,4.80
2022-09-28T19:52:29.632Z,4.13
2022-09-28T19:57:33.677Z,5.53
2022-09-28T20:02:38.029Z,5.00
2022-09-28T20:07:40.967Z,3.63
2022-09-28T20:12:43.947Z,4.55
2022-09-28T20:17:48.714Z,3.85
2022-09-28T20:22:52.338Z,4.80
2022-09-28T20:27:55.636Z,2.88
2022-09-28T20:33:00.071Z,3.28
2022-09-28T20:38:08.054Z,4.28
2022-09-28T20:43:11.091Z,3.70
2022-09-28T20:48:15.443Z,3.72
2022-09-28T20:53:18.485Z,3.83
2022-09-28T20:58:21.511Z,4.28
2022-09-28T21:03:25.892Z,3.97
2022-09-28T21:08:28.997Z,4.55
2022-09-28T21:13:31.955Z,6.22
2022-09-28T21:18:36.362Z,2.65
2022-09-28T21:23:39.883Z,2.83
2022-09-28T21:28:44.760Z,2.85
2022-09-28T21:33:49.230Z,8.38
2022-09-28T21:38:52.204Z,5.43
2022-09-28T21:43:55.211Z,4.00
2022-09-28T21:48:59.590Z,4.85
2022-09-28T21:54:02.574Z,5.20
2022-09-28T21:59:05.550Z,3.70
2022-09-28T22:04:10.508Z,4.00
2022-09-28T22:09:13.767Z,5.50
2022-09-28T22:14:16.844Z,3.40
2022-09-28T22:19:21.192Z,4.78
2022-09-28T22:24:24.365Z,3.60
2022-09-28T22:29:27.679Z,7.30
2022-09-28T22:34:32.484Z,3.10
2022-09-28T22:39:37.691Z,4.78
2022-09-28T22:44:40.724Z,4.53
2022-09-28T22:49:45.125Z,3.55
2022-09-28T22:54:51.111Z,3.53
2022-09-28T22:59:54.103Z,3.50
2022-09-28T23:04:58.479Z,3.15
2022-09-28T23:10:01.468Z,2.35
2022-09-28T23:15:04.821Z,2.13
2022-09-28T23:20:09.988Z,2.20
2022-09-28T23:25:13.028Z,2.20
2022-09-28T23:30:16.969Z,2.00
2022-09-28T23:35:21.501Z,1.20
2022-09-28T23:40:24.540Z,2.15
2022-09-28T23:45:27.586Z,1.35
2022-09-28T23:50:31.981Z,1.83
2022-09-28T23:55:35.032Z,1.75
